Time,TemperatureF,DewpointF,PressureIn,WindDirection,WindDirectionDegrees,WindSpeedMPH,WindSpeedGustMPH,Humidity,HourlyPrecipIn,Conditions,Clouds,dailyrainin,SoftwareType,DateUTC
2013-03-26 00:11:00,53.1,21.0,29.90,SW,231,0.0,-999.0,28,-99.99,,,0.00,weatherlink.com 1.10,2013-03-26 07:11:00,
2013-03-26 00:26:00,53.1,23.0,29.89,SW,231,7.0,-999.0,31,-99.99,,,0.00,weatherlink.com 1.10,2013-03-26 07:26:00,
2013-03-26 00:41:00,53.5,26.0,29.88,SW,236,5.0,-999.0,35,-99.99,,,0.00,weatherlink.com 1.10,2013-03-26 07:41:00,
2013-03-26 00:56:00,53.3,27.0,29.88,SW,236,6.0,-999.0,37,-99.99,,,0.00,weatherlink.com 1.10,2013-03-26 07:56:00,
2013-03-26 01:11:00,53.5,30.0,29.88,WSW,237,2.0,-999.0,40,-99.99,,,0.00,weatherlink.com 1.10,2013-03-26 08:11:00,
2013-03-26 01:26:00,53.6,29.0,29.87,WSW,238,2.0,-999.0,39,-99.99,,,0.00,weatherlink.com 1.10,2013-03-26 08:26:00,
2013-03-26 01:42:00,53.5,29.0,29.87,WSW,238,0.0,-999.0,39,-99.99,,,0.00,weatherlink.com 1.10,2013-03-26 08:42:00,
2013-03-26 01:57:00,52.8,28.0,29.88,WSW,238,3.0,-999.0,38,-99.99,,,0.00,weatherlink.com 1.10,2013-03-26 08:57:00,
2013-03-26 02:12:00,53.1,27.0,29.87,WSW,239,5.0,-999.0,36,-99.99,,,0.00,weatherlink.com 1.10,2013-03-26 09:12:00,
2013-03-26 02:27:00,53.2,26.0,29.87,WSW,239,5.0,-999.0,35,-99.99,,,0.00,weatherlink.com 1.10,2013-03-26 09:27:00,
2013-03-26 02:42:00,53.5,25.0,29.86,WSW,239,4.0,-999.0,33,-99.99,,,0.00,weatherlink.com 1.10,2013-03-26 09:42:00,
2013-03-26 02:57:00,53.8,24.0,29.86,WSW,240,2.0,-999.0,32,-99.99,,,0.00,weatherlink.com 1.10,2013-03-26 09:57:00,
2013-03-26 03:12:00,53.8,25.0,29.86,WSW,240,0.0,-999.0,33,-99.99,,,0.00,weatherlink.com 1.10,2013-03-26 10:12:00,
2013-03-26 03:27:00,53.8,26.0,29.85,WSW,241,0.0,-999.0,34,-99.99,,,0.00,weatherlink.com 1.10,2013-03-26 10:27:00,
2013-03-26 03:42:00,53.6,26.0,29.85,WSW,241,0.0,-999.0,35,-99.99,,,0.00,weatherlink.com 1.10,2013-03-26 10:42:00,
2013-03-26 03:57:00,53.1,27.0,29.85,WSW,241,0.0,-999.0,37,-99.99,,,0.00,weatherlink.com 1.10,2013-03-26 10:57:00,
2013-03-26 04:12:00,52.5,27.0,29.85,WSW,241,0.0,-999.0,38,-99.99,,,0.00,weatherlink.com 1.10,2013-03-26 11:12:00,
2013-03-26 04:27:00,51.7,28.0,29.86,WSW,241,0.0,-999.0,40,-99.99,,,0.00,weatherlink.com 1.10,2013-03-26 11:27:00,
2013-03-26 04:43:00,51.4,29.0,29.86,WSW,241,2.0,-999.0,43,-99.99,,,0.00,weatherlink.com 1.10,2013-03-26 11:43:00,
2013-03-26 04:58:00,51.4,29.0,29.85,WSW,241,0.0,-999.0,42,-99.99,,,0.00,weatherlink.com 1.10,2013-03-26 11:58:00,
2013-03-26 05:13:00,51.0,28.0,29.85,WSW,241,0.0,-999.0,42,-99.99,,,0.00,weatherlink.com 1.10,2013-03-26 12:13:00,
2013-03-26 05:28:00,50.4,28.0,29.86,WSW,241,0.0,-999.0,43,-99.99,,,0.00,weatherlink.com 1.10,2013-03-26 12:28:00,
2013-03-26 05:43:00,50.2,29.0,29.86,WSW,241,0.0,-999.0,44,-99.99,,,0.00,weatherlink.com 1.10,2013-03-26 12:43:00,
2013-03-26 05:58:00,50.1,29.0,29.86,WSW,241,0.0,-999.0,44,-99.99,,,0.00,weatherlink.com 1.10,2013-03-26 12:58:00,
2013-03-26 06:13:00,49.4,28.0,29.86,WSW,241,0.0,-999.0,44,-99.99,,,0.00,weatherlink.com 1.10,2013-03-26 13:13:00,
2013-03-26 06:28:00,48.6,24.0,29.88,WSW,241,0.0,-999.0,39,-99.99,,,0.00,weatherlink.com 1.10,2013-03-26 13:28:00,
2013-03-26 06:43:00,47.3,24.0,29.88,WSW,241,0.0,-999.0,41,-99.99,,,0.00,weatherlink.com 1.10,2013-03-26 13:43:00,
2013-03-26 06:58:00,46.2,25.0,29.89,WSW,241,0.0,-999.0,44,-99.99,,,0.00,weatherlink.com 1.10,2013-03-26 13:58:00,
2013-03-26 07:13:00,45.8,25.0,29.90,WSW,241,0.0,-999.0,45,-99.99,,,0.00,weatherlink.com 1.10,2013-03-26 14:13:00,
2013-03-26 07:29:00,46.2,29.0,29.91,SW,226,5.0,-999.0,51,-99.99,,,0.00,weatherlink.com 1.10,2013-03-26 14:29:00,
2013-03-26 07:44:00,51.0,30.0,29.92,SW,229,1.0,-999.0,44,-99.99,,,0.00,weatherlink.com 1.10,2013-03-26 14:44:00,
2013-03-26 07:59:00,53.6,31.0,29.91,SW,234,0.0,-999.0,42,-99.99,,,0.00,weatherlink.com 1.10,2013-03-26 14:59:00,
2013-03-26 08:14:00,54.7,31.0,29.90,SW,232,1.0,-999.0,40,-99.99,,,0.00,weatherlink.com 1.10,2013-03-26 15:14:00,
2013-03-26 08:29:00,55.6,30.0,29.91,SSW,205,0.0,-999.0,38,-99.99,,,0.00,weatherlink.com 1.10,2013-03-26 15:29:00,
2013-03-26 08:44:00,56.9,27.0,29.91,SSW,204,2.0,-999.0,32,-99.99,,,0.00,weatherlink.com 1.10,2013-03-26 15:44:00,
2013-03-26 08:59:00,58.1,27.0,29.91,SSW,205,0.0,-999.0,30,-99.99,,,0.00,weatherlink.com 1.10,2013-03-26 15:59:00,
2013-03-26 09:14:00,59.8,28.0,29.91,SSW,208,2.0,-999.0,30,-99.99,,,0.00,weatherlink.com 1.10,2013-03-26 16:14:00,
2013-03-26 09:29:00,62.1,28.0,29.91,SW,230,4.0,-999.0,28,-99.99,,,0.00,weatherlink.com 1.10,2013-03-26 16:29:00,
2013-03-26 09:45:00,63.2,29.0,29.90,SW,226,4.0,-999.0,28,-99.99,,,0.00,weatherlink.com 1.10,2013-03-26 16:45:00,
2013-03-26 10:00:00,64.2,29.0,29.89,SW,227,0.0,-999.0,27,-99.99,,,0.00,weatherlink.com 1.10,2013-03-26 17:00:00,
2013-03-26 10:15:00,66.0,28.0,29.89,SW,217,3.0,-999.0,24,-99.99,,,0.00,weatherlink.com 1.10,2013-03-26 17:15:00,
2013-03-26 10:30:00,67.8,26.0,29.89,SW,226,0.0,-999.0,21,-99.99,,,0.00,weatherlink.com 1.10,2013-03-26 17:30:00,
2013-03-26 10:45:00,69.6,25.0,29.89,SSW,205,0.0,-999.0,19,-99.99,,,0.00,weatherlink.com 1.10,2013-03-26 17:45:00,
2013-03-26 11:00:00,70.4,26.0,29.88,WSW,255,7.0,-999.0,19,-99.99,,,0.00,weatherlink.com 1.10,2013-03-26 18:00:00,
2013-03-26 11:15:00,70.8,25.0,29.88,SSW,203,0.0,-999.0,18,-99.99,,,0.00,weatherlink.com 1.10,2013-03-26 18:15:00,
2013-03-26 11:30:00,72.3,20.0,29.88,West,263,6.0,-999.0,14,-99.99,,,0.00,weatherlink.com 1.10,2013-03-26 18:30:00,
2013-03-26 11:45:00,73.5,20.0,29.87,SW,235,0.0,-999.0,13,-99.99,,,0.00,weatherlink.com 1.10,2013-03-26 18:45:00,
2013-03-26 12:00:00,73.7,20.0,29.87,SSW,192,2.0,-999.0,13,-99.99,,,0.00,weatherlink.com 1.10,2013-03-26 19:00:00,
2013-03-26 12:31:00,74.7,15.0,29.85,SSW,193,9.0,-999.0,10,-99.99,,,0.00,weatherlink.com 1.10,2013-03-26 19:31:00,
2013-03-26 13:01:00,77.0,11.0,29.84,SW,215,15.0,-999.0,8,-99.99,,,0.00,weatherlink.com 1.10,2013-03-26 20:01:00,
2013-03-26 13:16:00,76.7,11.0,29.83,SSW,200,8.0,-999.0,8,-99.99,,,0.00,weatherlink.com 1.10,2013-03-26 20:16:00,
2013-03-26 13:31:00,78.5,12.0,29.82,SW,236,17.0,-999.0,8,-99.99,,,0.00,weatherlink.com 1.10,2013-03-26 20:31:00,
2013-03-26 13:46:00,78.8,13.0,29.82,West,263,7.0,-999.0,8,-99.99,,,0.00,weatherlink.com 1.10,2013-03-26 20:46:00,
2013-03-26 14:01:00,79.2,16.0,29.82,WSW,252,7.0,-999.0,9,-99.99,,,0.00,weatherlink.com 1.10,2013-03-26 21:01:00,
2013-03-26 14:16:00,78.5,15.0,29.82,SW,235,11.0,-999.0,9,-99.99,,,0.00,weatherlink.com 1.10,2013-03-26 21:16:00,
2013-03-26 14:31:00,78.5,17.0,29.81,WSW,250,21.0,-999.0,10,-99.99,,,0.00,weatherlink.com 1.10,2013-03-26 21:31:00,
2013-03-26 14:46:00,78.3,17.0,29.82,WSW,253,14.0,-999.0,10,-99.99,,,0.00,weatherlink.com 1.10,2013-03-26 21:46:00,
2013-03-26 15:02:00,77.9,17.0,29.82,WSW,242,14.0,-999.0,10,-99.99,,,0.00,weatherlink.com 1.10,2013-03-26 22:02:00,
2013-03-26 15:17:00,77.6,17.0,29.82,WSW,251,17.0,-999.0,10,-99.99,,,0.00,weatherlink.com 1.10,2013-03-26 22:17:00,
2013-03-26 15:32:00,76.8,18.0,29.83,West,279,19.0,-999.0,11,-99.99,,,0.00,weatherlink.com 1.10,2013-03-26 22:32:00,
2013-03-26 15:47:00,76.1,20.0,29.83,West,275,16.0,-999.0,12,-99.99,,,0.00,weatherlink.com 1.10,2013-03-26 22:47:00,
2013-03-26 16:17:00,75.1,23.0,29.84,West,272,15.0,-999.0,14,-99.99,,,0.00,weatherlink.com 1.10,2013-03-26 23:17:00,
2013-03-26 16:32:00,74.9,24.0,29.84,West,270,11.0,-999.0,15,-99.99,,,0.00,weatherlink.com 1.10,2013-03-26 23:32:00,
2013-03-26 16:47:00,74.6,22.0,29.83,WSW,255,14.0,-999.0,14,-99.99,,,0.00,weatherlink.com 1.10,2013-03-26 23:47:00,
2013-03-26 17:02:00,74.4,24.0,29.84,WSW,245,18.0,-999.0,15,-99.99,,,0.00,weatherlink.com 1.10,2013-03-27 00:02:00,
2013-03-26 17:17:00,73.7,26.0,29.84,SW,234,18.0,-999.0,17,-99.99,,,0.00,weatherlink.com 1.10,2013-03-27 00:17:00,
2013-03-26 17:32:00,73.0,26.0,29.84,West,265,9.0,-999.0,17,-99.99,,,0.00,weatherlink.com 1.10,2013-03-27 00:32:00,
2013-03-26 17:47:00,72.5,25.0,29.84,West,271,14.0,-999.0,17,-99.99,,,0.00,weatherlink.com 1.10,2013-03-27 00:47:00,
2013-03-26 18:03:00,71.8,26.0,29.84,West,264,11.0,-999.0,18,-99.99,,,0.00,weatherlink.com 1.10,2013-03-27 01:03:00,
2013-03-26 18:18:00,71.1,25.0,29.86,West,264,16.0,-999.0,18,-99.99,,,0.00,weatherlink.com 1.10,2013-03-27 01:18:00,
2013-03-26 18:33:00,70.1,25.0,29.86,West,262,11.0,-999.0,18,-99.99,,,0.00,weatherlink.com 1.10,2013-03-27 01:33:00,
2013-03-26 18:48:00,68.9,24.0,29.87,WSW,248,9.0,-999.0,18,-99.99,,,0.00,weatherlink.com 1.10,2013-03-27 01:48:00,
2013-03-26 19:03:00,67.8,23.0,29.88,WSW,244,9.0,-999.0,18,-99.99,,,0.00,weatherlink.com 1.10,2013-03-27 02:03:00,
2013-03-26 19:18:00,66.4,24.0,29.86,WSW,254,9.0,-999.0,20,-99.99,,,0.00,weatherlink.com 1.10,2013-03-27 02:18:00,
2013-03-26 19:33:00,65.3,23.0,29.87,WSW,256,9.0,-999.0,20,-99.99,,,0.00,weatherlink.com 1.10,2013-03-27 02:33:00,
2013-03-26 19:48:00,64.5,22.0,29.87,WSW,248,7.0,-999.0,20,-99.99,,,0.00,weatherlink.com 1.10,2013-03-27 02:48:00,
2013-03-26 20:03:00,62.9,22.0,29.88,West,259,5.0,-999.0,21,-99.99,,,0.00,weatherlink.com 1.10,2013-03-27 03:03:00,
2013-03-26 20:18:00,62.9,22.0,29.88,WSW,245,5.0,-999.0,21,-99.99,,,0.00,weatherlink.com 1.10,2013-03-27 03:18:00,
2013-03-26 20:33:00,62.4,23.0,29.88,WSW,253,12.0,-999.0,22,-99.99,,,0.00,weatherlink.com 1.10,2013-03-27 03:33:00,
2013-03-26 20:48:00,61.8,24.0,29.88,SW,215,0.0,-999.0,24,-99.99,,,0.00,weatherlink.com 1.10,2013-03-27 03:48:00,
2013-03-26 21:03:00,59.5,25.0,29.89,SW,234,6.0,-999.0,27,-99.99,,,0.00,weatherlink.com 1.10,2013-03-27 04:03:00,
2013-03-26 21:18:00,59.0,25.0,29.89,WSW,238,1.0,-999.0,27,-99.99,,,0.00,weatherlink.com 1.10,2013-03-27 04:18:00,
2013-03-26 21:34:00,57.6,25.0,29.89,SW,231,7.0,-999.0,28,-99.99,,,0.00,weatherlink.com 1.10,2013-03-27 04:34:00,
2013-03-26 21:49:00,57.3,24.0,29.90,SW,234,4.0,-999.0,28,-99.99,,,0.00,weatherlink.com 1.10,2013-03-27 04:49:00,
2013-03-26 22:04:00,58.3,27.0,29.89,WSW,237,6.0,-999.0,30,-99.99,,,0.00,weatherlink.com 1.10,2013-03-27 05:04:00,
2013-03-26 22:19:00,58.4,28.0,29.88,WSW,255,7.0,-999.0,31,-99.99,,,0.00,weatherlink.com 1.10,2013-03-27 05:19:00,
2013-03-26 22:34:00,57.8,29.0,29.88,WSW,255,10.0,-999.0,33,-99.99,,,0.00,weatherlink.com 1.10,2013-03-27 05:34:00,
2013-03-26 22:49:00,57.3,30.0,29.88,WSW,250,5.0,-999.0,35,-99.99,,,0.00,weatherlink.com 1.10,2013-03-27 05:49:00,
2013-03-26 23:04:00,57.2,30.0,29.89,WSW,250,2.0,-999.0,36,-99.99,,,0.00,weatherlink.com 1.10,2013-03-27 06:04:00,
2013-03-26 23:19:00,56.5,31.0,29.88,SW,216,2.0,-999.0,38,-99.99,,,0.00,weatherlink.com 1.10,2013-03-27 06:19:00,
2013-03-26 23:34:00,55.9,32.0,29.88,SW,234,6.0,-999.0,40,-99.99,,,0.00,weatherlink.com 1.10,2013-03-27 06:34:00,
2013-03-26 23:49:00,56.6,32.0,29.87,WSW,247,3.0,-999.0,40,-99.99,,,0.00,weatherlink.com 1.10,2013-03-27 06:49:00,